コロンボ の空港の天気 - METARとTAF

バンダラナイケ国際空港 ( VCBI / CMB ) - スリランカ コロンボ
飛行場実況気象(Metar)
観測時間10/01 21:40 IST (10/01 16:10 UTC)
風向・風速南西 4m/s
視程10km以上
天気現象
全天の4割程度の雲 雲底高度 520m
気温27℃
湿度84%
気圧1010hPa
METARVCBI 011610Z 23008KT 9999 SCT017 27/24 Q1010 NOSIG
過去の天気等 Google飛行場航空写真 Wunderground天気予報

過去48時間のMETAR

飛行場予報(TAF)
発表時間: 10/01 16:30 IST (10/01 11:00 UTC)
予報対象時間: 1日17時 IST ~ 2日23時 IST
風向・風速西南西 5m/s
視程10km以上
全天の4割程度の雲 雲底高度 520m
2日5時 IST ~ 2日8時 IST に 確率 30% で一時的に
視程6000m
天気現象弱いしゅう雨
少しの雲 雲底高度 370m
全天の8割程度の雲 雲底高度 490m
TAF VCBI 011100Z 0112/0218 24010KT 9999 SCT017 TX30/0208Z TN25/0200Z
PROB30 TEMPO 0200/0203 6000 -SHRA FEW012 BKN016